createdAt,value
2023-01-12T00:02:07.717Z,94689.16
2023-01-12T00:04:36.487Z,94680.53
2023-01-12T00:07:04.624Z,94683.78
2023-01-12T00:09:32.616Z,94689.50
2023-01-12T00:12:00.560Z,94692.53
2023-01-12T00:14:29.371Z,94691.47
2023-01-12T00:16:59.115Z,94696.16
2023-01-12T00:19:27.145Z,94696.84
2023-01-12T00:22:02.327Z,94695.34
2023-01-12T00:24:31.790Z,94693.13
2023-01-12T00:27:01.859Z,94706.75
2023-01-12T00:29:30.255Z,94704.66
2023-01-12T00:32:00.803Z,94694.41
2023-01-12T00:34:29.827Z,94701.75
2023-01-12T00:36:58.375Z,94691.84
2023-01-12T00:39:26.319Z,94698.81
2023-01-12T00:42:11.362Z,94696.38
2023-01-12T00:44:56.945Z,94699.84
2023-01-12T00:47:26.652Z,94696.72
2023-01-12T00:49:54.562Z,94692.50
2023-01-12T00:52:30.672Z,94687.03
2023-01-12T00:54:59.647Z,94684.63
2023-01-12T00:57:28.273Z,94690.88
2023-01-12T00:59:59.425Z,94686.47
2023-01-12T01:02:29.487Z,94689.97
2023-01-12T01:04:57.532Z,94679.97
2023-01-12T01:07:25.733Z,94694.28
2023-01-12T01:09:53.920Z,94687.88
2023-01-12T01:12:21.883Z,94703.25
2023-01-12T01:14:50.075Z,94703.94
2023-01-12T01:17:18.321Z,94701.03
2023-01-12T01:19:48.332Z,94681.47
2023-01-12T01:22:16.227Z,94693.47
2023-01-12T01:24:44.188Z,94688.66
2023-01-12T01:27:12.268Z,94695.63
2023-01-12T01:29:40.221Z,94696.47
2023-01-12T01:32:08.594Z,94696.22
2023-01-12T01:34:37.242Z,94703.69
2023-01-12T01:37:06.566Z,94699.03
2023-01-12T01:39:34.453Z,94703.91
2023-01-12T01:42:02.304Z,94706.00
2023-01-12T01:44:50.737Z,94715.31
2023-01-12T01:47:26.247Z,94711.09
2023-01-12T01:49:57.244Z,94713.66
2023-01-12T01:52:31.212Z,94707.38
2023-01-12T01:55:04.038Z,94713.69
2023-01-12T01:57:37.939Z,94712.06
2023-01-12T02:00:08.433Z,94714.38
2023-01-12T02:02:38.190Z,94709.63
2023-01-12T02:05:07.283Z,94716.13
2023-01-12T02:07:36.633Z,94711.69
2023-01-12T02:10:05.584Z,94710.97
2023-01-12T02:12:51.658Z,94704.13
2023-01-12T02:15:37.505Z,94711.09
2023-01-12T02:18:16.067Z,94713.53
2023-01-12T02:20:52.428Z,94706.22
2023-01-12T02:24:02.046Z,94702.97
2023-01-12T02:27:20.705Z,94716.00
2023-01-12T02:30:46.321Z,94700.19
2023-01-12T02:33:29.005Z,94706.56
2023-01-12T02:36:06.302Z,94711.13
2023-01-12T02:38:40.773Z,94712.97
2023-01-12T02:41:19.100Z,94703.22
2023-01-12T02:43:46.238Z,94702.97
2023-01-12T02:46:22.737Z,94708.53
2023-01-12T02:48:57.150Z,94706.22
2023-01-12T02:51:33.463Z,94708.78
2023-01-12T02:54:05.557Z,94706.22
2023-01-12T02:56:38.335Z,94711.94
2023-01-12T02:59:12.313Z,94704.47
2023-01-12T03:01:42.778Z,94699.31
2023-01-12T03:04:14.064Z,94702.22
2023-01-12T03:06:46.783Z,94688.84
2023-01-12T03:09:17.175Z,94692.22
2023-01-12T03:11:50.022Z,94694.78
2023-01-12T03:14:19.131Z,94687.91
2023-01-12T03:16:47.102Z,94690.59
2023-01-12T03:19:20.897Z,94700.81
2023-01-12T03:21:54.608Z,94704.22
2023-01-12T03:24:27.723Z,94692.44
2023-01-12T03:27:01.796Z,94693.34
2023-01-12T03:29:34.996Z,94693.81
2023-01-12T03:32:03.151Z,94703.63
2023-01-12T03:34:35.661Z,94697.66
2023-01-12T03:37:11.566Z,94690.09
2023-01-12T03:39:49.829Z,94689.03
2023-01-12T03:42:24.927Z,94694.63
2023-01-12T03:45:06.313Z,94694.44
2023-01-12T03:47:35.686Z,94682.78
2023-01-12T03:50:10.772Z,94684.94
2023-01-12T03:52:42.158Z,94687.31
2023-01-12T03:55:15.396Z,94675.31
2023-01-12T03:57:44.894Z,94669.50
2023-01-12T04:00:15.296Z,94677.66
2023-01-12T04:02:44.815Z,94671.72
2023-01-12T04:05:16.211Z,94684.06
2023-01-12T04:07:44.103Z,94681.84
2023-01-12T04:10:12.468Z,94686.03
2023-01-12T04:12:39.410Z,94675.00
2023-01-12T04:15:08.178Z,94676.25
2023-01-12T04:17:36.036Z,94681.66
2023-01-12T04:20:04.912Z,94681.88
2023-01-12T04:22:45.357Z,94680.50
2023-01-12T04:25:15.086Z,94675.72
2023-01-12T04:27:46.510Z,94678.63
2023-01-12T04:30:15.603Z,94679.91
2023-01-12T04:32:44.107Z,94682.59
2023-01-12T04:35:13.083Z,94688.88
2023-01-12T04:37:42.403Z,94681.78
2023-01-12T04:40:12.357Z,94687.59
2023-01-12T04:43:08.270Z,94682.25
2023-01-12T04:45:38.083Z,94691.56
2023-01-12T04:48:08.286Z,94699.22
2023-01-12T04:50:36.235Z,94693.19
2023-01-12T04:53:07.094Z,94695.38
2023-01-12T04:55:37.540Z,94703.19
2023-01-12T04:58:05.584Z,94703.41
2023-01-12T05:00:33.607Z,94704.34
2023-01-12T05:03:02.621Z,94702.50
2023-01-12T05:05:32.669Z,94709.13
2023-01-12T05:08:19.161Z,94704.13
2023-01-12T05:10:52.149Z,94715.06
2023-01-12T05:13:20.147Z,94712.97
2023-01-12T05:15:48.093Z,94718.09
2023-01-12T05:18:16.641Z,94724.19
2023-01-12T05:20:44.600Z,94722.97
2023-01-12T05:23:12.536Z,94724.50
2023-01-12T05:25:40.411Z,94731.13
2023-01-12T05:28:09.632Z,94721.69
2023-01-12T05:30:37.554Z,94728.59
2023-01-12T05:33:05.506Z,94724.19
2023-01-12T05:35:33.456Z,94733.47
2023-01-12T05:38:01.456Z,94748.03
2023-01-12T05:40:29.312Z,94743.38
2023-01-12T05:43:19.695Z,94750.84
2023-01-12T05:45:49.010Z,94746.63
2023-01-12T05:48:16.947Z,94753.28
2023-01-12T05:50:44.887Z,94764.09
2023-01-12T05:53:12.771Z,94763.75
2023-01-12T05:55:40.664Z,94762.34
2023-01-12T05:58:08.554Z,94762.59
2023-01-12T06:00:36.649Z,94764.78
2023-01-12T06:03:05.914Z,94755.63
2023-01-12T06:05:34.019Z,94760.97
2023-01-12T06:08:02.851Z,94763.88
2023-01-12T06:10:30.789Z,94763.28
2023-01-12T06:13:16.233Z,94763.94
2023-01-12T06:15:44.180Z,94769.19
2023-01-12T06:18:13.517Z,94765.59
2023-01-12T06:20:41.437Z,94759.56
2023-01-12T06:23:09.321Z,94757.00
2023-01-12T06:25:37.211Z,94774.19
2023-01-12T06:28:07.117Z,94756.28
2023-01-12T06:30:35.048Z,94759.19
2023-01-12T06:33:04.011Z,94754.78
2023-01-12T06:35:33.303Z,94755.25
2023-01-12T06:38:01.261Z,94766.06
2023-01-12T06:40:29.213Z,94761.38
2023-01-12T06:42:57.134Z,94765.59
2023-01-12T06:45:25.108Z,94766.75
2023-01-12T06:47:53.049Z,94765.72
2023-01-12T06:50:20.933Z,94767.94
2023-01-12T06:52:50.403Z,94770.75
2023-01-12T06:55:18.469Z,94775.53
2023-01-12T06:57:46.344Z,94768.53
2023-01-12T07:00:15.422Z,94779.16
2023-01-12T07:02:43.367Z,94775.66
2023-01-12T07:05:11.389Z,94774.28
2023-01-12T07:07:40.377Z,94782.56
2023-01-12T07:10:11.899Z,94781.38
2023-01-12T07:12:40.215Z,94779.41
2023-01-12T07:15:09.636Z,94780.56
2023-01-12T07:17:37.742Z,94781.69
2023-01-12T07:20:06.517Z,94775.97
2023-01-12T07:22:34.504Z,94781.69
2023-01-12T07:25:02.536Z,94777.50
2023-01-12T07:27:31.921Z,94770.19
2023-01-12T07:29:59.810Z,94780.78
2023-01-12T07:32:29.662Z,94777.50
2023-01-12T07:34:57.674Z,94781.97
2023-01-12T07:37:25.669Z,94778.34
2023-01-12T07:39:53.592Z,94786.50
2023-01-12T07:42:23.521Z,94786.63
2023-01-12T07:44:53.322Z,94781.16
2023-01-12T07:47:21.645Z,94771.94
2023-01-12T07:49:49.569Z,94781.75
2023-01-12T07:52:17.917Z,94785.03
2023-01-12T07:54:46.104Z,94784.78
2023-01-12T07:57:16.621Z,94785.72
2023-01-12T07:59:44.485Z,94790.66
2023-01-12T08:02:17.102Z,94784.13
2023-01-12T08:04:45.262Z,94788.75
2023-01-12T08:07:14.910Z,94788.75
2023-01-12T08:09:43.210Z,94792.06
2023-01-12T08:12:11.176Z,94788.78
2023-01-12T08:14:41.493Z,94784.72
2023-01-12T08:17:16.851Z,94793.72
2023-01-12T08:19:52.244Z,94789.25
2023-01-12T08:22:24.173Z,94780.19
2023-01-12T08:24:56.672Z,94784.84
2023-01-12T08:27:28.211Z,94780.41
2023-01-12T08:29:58.658Z,94778.66
2023-01-12T08:32:28.418Z,94779.94
2023-01-12T08:35:02.267Z,94781.81
2023-01-12T08:37:33.886Z,94771.63
2023-01-12T08:40:02.265Z,94776.41
2023-01-12T08:42:31.912Z,94776.97
2023-01-12T08:45:00.579Z,94782.53
2023-01-12T08:47:30.718Z,94784.06
2023-01-12T08:50:00.700Z,94777.13
2023-01-12T08:52:31.755Z,94787.59
2023-01-12T08:54:59.701Z,94791.09
2023-01-12T08:57:27.587Z,94793.78
2023-01-12T08:59:55.542Z,94794.03
2023-01-12T09:02:25.343Z,94797.97
2023-01-12T09:04:53.250Z,94799.34
2023-01-12T09:07:22.558Z,94793.63
2023-01-12T09:09:51.071Z,94798.88
2023-01-12T09:12:19.026Z,94801.03
2023-01-12T09:14:46.896Z,94807.31
2023-01-12T09:17:15.142Z,94797.97
2023-01-12T09:19:44.691Z,94800.22
2023-01-12T09:22:12.564Z,94800.16
2023-01-12T09:24:41.888Z,94794.78
2023-01-12T09:27:11.551Z,94803.13
2023-01-12T09:29:39.543Z,94802.94
2023-01-12T09:32:07.496Z,94790.41
2023-01-12T09:34:35.480Z,94790.41
2023-01-12T09:37:03.366Z,94799.25
2023-01-12T09:39:31.260Z,94798.22
2023-01-12T09:42:17.880Z,94790.41
2023-01-12T09:45:06.005Z,94798.72
2023-01-12T09:47:39.733Z,94797.38
2023-01-12T09:50:11.760Z,94780.88
2023-01-12T09:52:42.934Z,94795.66
2023-01-12T09:55:17.012Z,94788.56
2023-01-12T09:58:13.563Z,94777.81
2023-01-12T10:00:41.590Z,94776.97
2023-01-12T10:03:17.418Z,94780.44
2023-01-12T10:05:48.838Z,94783.44
2023-01-12T10:08:29.791Z,94791.81
2023-01-12T10:11:08.348Z,94789.38
2023-01-12T10:14:17.559Z,94784.47
2023-01-12T10:17:01.155Z,94788.22
2023-01-12T10:19:36.298Z,94772.19
2023-01-12T10:22:36.842Z,94785.34
2023-01-12T10:25:19.720Z,94793.66
2023-01-12T10:27:50.174Z,94781.66
2023-01-12T10:30:20.894Z,94778.56
2023-01-12T10:32:50.190Z,94774.41
2023-01-12T10:35:20.554Z,94778.94
2023-01-12T10:37:51.567Z,94771.91
2023-01-12T10:40:29.683Z,94777.03
2023-01-12T10:43:24.549Z,94781.94
2023-01-12T10:46:13.808Z,94775.13
2023-01-12T10:48:45.226Z,94773.78
2023-01-12T10:51:26.103Z,94768.69
2023-01-12T10:53:58.070Z,94767.59
2023-01-12T10:56:35.638Z,94759.66
2023-01-12T10:59:06.144Z,94755.97
2023-01-12T11:01:52.733Z,94759.94
2023-01-12T11:04:24.440Z,94760.06
2023-01-12T11:07:04.939Z,94758.47
2023-01-12T11:09:33.245Z,94756.75
2023-01-12T11:12:03.885Z,94764.59
2023-01-12T11:14:34.237Z,94752.81
2023-01-12T11:17:18.597Z,94754.28
2023-01-12T11:19:51.993Z,94748.97
2023-01-12T11:22:27.483Z,94758.41
2023-01-12T11:25:01.864Z,94768.47
2023-01-12T11:27:36.840Z,94757.84
2023-01-12T11:30:12.970Z,94738.94
2023-01-12T11:32:45.693Z,94743.84
2023-01-12T11:35:28.830Z,94745.22
2023-01-12T11:38:01.394Z,94742.72
2023-01-12T11:40:32.836Z,94733.94
2023-01-12T11:43:24.854Z,94746.31
2023-01-12T11:45:55.948Z,94732.31
2023-01-12T11:48:31.802Z,94738.66
2023-01-12T11:51:01.838Z,94738.69
2023-01-12T11:53:29.944Z,94736.22
2023-01-12T11:56:13.358Z,94732.31
2023-01-12T11:58:55.721Z,94728.56
2023-01-12T12:01:31.993Z,94727.03
2023-01-12T12:04:01.756Z,94726.06
2023-01-12T12:07:00.342Z,94728.25
2023-01-12T12:09:40.881Z,94722.09
2023-01-12T12:12:17.029Z,94730.22
2023-01-12T12:14:59.670Z,94722.44
2023-01-12T12:17:41.871Z,94724.09
2023-01-12T12:20:19.388Z,94717.88
2023-01-12T12:23:04.043Z,94731.16
2023-01-12T12:25:44.870Z,94724.66
2023-01-12T12:28:34.851Z,94713.88
2023-01-12T12:31:16.770Z,94719.94
2023-01-12T12:33:59.824Z,94717.81
2023-01-12T12:36:34.885Z,94719.06
2023-01-12T12:39:22.113Z,94722.66
2023-01-12T12:42:16.974Z,94729.09
2023-01-12T12:45:11.277Z,94726.47
2023-01-12T12:48:03.775Z,94722.72
2023-01-12T12:50:36.387Z,94726.47
2023-01-12T12:53:15.050Z,94723.22
2023-01-12T12:55:45.125Z,94732.66
2023-01-12T12:58:31.840Z,94727.63
2023-01-12T13:01:36.885Z,94746.91
2023-01-12T13:04:06.339Z,94723.34
2023-01-12T13:06:36.393Z,94728.72
2023-01-12T13:09:26.689Z,94713.94
2023-01-12T13:12:10.338Z,94729.88
2023-01-12T13:14:39.502Z,94726.84
2023-01-12T13:17:52.796Z,94733.31
2023-01-12T13:20:52.139Z,94737.41
2023-01-12T13:23:56.463Z,94733.63
2023-01-12T13:26:40.690Z,94735.34
2023-01-12T13:29:40.456Z,94731.25
2023-01-12T13:32:41.015Z,94732.31
2023-01-12T13:35:28.320Z,94728.13
2023-01-12T13:38:04.729Z,94736.63
2023-01-12T13:40:33.668Z,94726.66
2023-01-12T13:43:19.854Z,94730.88
2023-01-12T13:45:53.774Z,94728.88
2023-01-12T13:48:22.577Z,94733.06
2023-01-12T13:50:53.763Z,94729.94
2023-01-12T13:53:27.582Z,94737.34
2023-01-12T13:56:01.418Z,94718.66
2023-01-12T13:58:30.921Z,94735.56
2023-01-12T14:01:02.519Z,94721.78
2023-01-12T14:03:55.266Z,94717.66
2023-01-12T14:06:34.456Z,94722.59
2023-01-12T14:09:12.746Z,94725.72
2023-01-12T14:11:57.645Z,94721.16
2023-01-12T14:15:13.341Z,94724.22
2023-01-12T14:17:57.544Z,94710.06
2023-01-12T14:20:28.036Z,94725.41
2023-01-12T14:23:13.791Z,94713.75
2023-01-12T14:25:42.371Z,94714.34
2023-01-12T14:28:18.320Z,94725.69
2023-01-12T14:30:49.514Z,94729.03
2023-01-12T14:33:24.794Z,94727.06
2023-01-12T14:35:56.232Z,94729.00
2023-01-12T14:38:27.620Z,94740.78
2023-01-12T14:41:03.437Z,94719.66
2023-01-12T14:43:50.598Z,94722.28
2023-01-12T14:46:28.646Z,94721.53
2023-01-12T14:49:03.269Z,94726.69
2023-01-12T14:51:36.639Z,94724.53
2023-01-12T14:54:19.708Z,94726.03
2023-01-12T14:56:56.369Z,94731.22
2023-01-12T14:59:28.804Z,94734.09
2023-01-12T15:02:21.099Z,94744.97
2023-01-12T15:04:56.784Z,94734.72
2023-01-12T15:07:26.441Z,94742.09
2023-01-12T15:09:57.297Z,94746.25
2023-01-12T15:12:27.006Z,94746.63
2023-01-12T15:14:55.002Z,94749.22
2023-01-12T15:17:40.054Z,94752.25
2023-01-12T15:20:31.193Z,94751.78
2023-01-12T15:23:16.762Z,94749.06
2023-01-12T15:25:45.879Z,94747.78
2023-01-12T15:28:13.803Z,94759.03
2023-01-12T15:30:41.766Z,94770.56
2023-01-12T15:33:10.590Z,94756.44
2023-01-12T15:35:45.926Z,94763.78
2023-01-12T15:38:16.277Z,94759.97
2023-01-12T15:40:44.995Z,94766.81
2023-01-12T15:43:14.952Z,94766.59
2023-01-12T15:45:44.867Z,94773.13
2023-01-12T15:48:13.072Z,94769.19
2023-01-12T15:50:45.212Z,94769.31
2023-01-12T15:53:16.058Z,94769.97
2023-01-12T15:55:44.044Z,94766.75
2023-01-12T15:58:12.258Z,94780.03
2023-01-12T16:00:40.377Z,94774.19
2023-01-12T16:03:32.251Z,94769.91
2023-01-12T16:06:04.478Z,94772.22
2023-01-12T16:08:32.482Z,94775.13
2023-01-12T16:11:13.686Z,94791.38
2023-01-12T16:13:41.930Z,94778.06
2023-01-12T16:16:15.044Z,94783.78
2023-01-12T16:18:43.074Z,94785.97
2023-01-12T16:21:16.493Z,94785.91
2023-01-12T16:23:44.759Z,94784.47
2023-01-12T16:26:12.951Z,94781.91
2023-01-12T16:28:41.240Z,94781.09
2023-01-12T16:31:12.430Z,94782.50
2023-01-12T16:33:41.474Z,94805.59
2023-01-12T16:36:10.375Z,94808.75
2023-01-12T16:38:39.765Z,94795.78
2023-01-12T16:41:12.892Z,94802.91
2023-01-12T16:43:40.843Z,94800.44
2023-01-12T16:46:08.900Z,94800.00
2023-01-12T16:48:39.321Z,94809.78
2023-01-12T16:51:11.444Z,94804.78
2023-01-12T16:53:42.285Z,94810.84
2023-01-12T16:56:12.295Z,94807.22
2023-01-12T16:58:41.847Z,94820.50
2023-01-12T17:01:12.470Z,94813.75
2023-01-12T17:03:42.178Z,94799.53
2023-01-12T17:06:11.279Z,94818.88
2023-01-12T17:08:41.487Z,94816.69
2023-01-12T17:11:10.980Z,94829.13
2023-01-12T17:13:39.596Z,94834.25
2023-01-12T17:16:09.998Z,94833.44
2023-01-12T17:18:38.661Z,94835.69
2023-01-12T17:21:09.262Z,94846.41
2023-01-12T17:23:37.506Z,94842.78
2023-01-12T17:26:08.664Z,94841.16
2023-01-12T17:28:36.688Z,94849.66
2023-01-12T17:31:08.525Z,94854.44
2023-01-12T17:33:36.767Z,94845.09
2023-01-12T17:36:05.820Z,94845.22
2023-01-12T17:38:34.329Z,94855.28
2023-01-12T17:41:09.759Z,94837.97
2023-01-12T17:43:37.388Z,94853.50
2023-01-12T17:46:08.930Z,94857.13
2023-01-12T17:48:36.909Z,94859.91
2023-01-12T17:51:11.795Z,94859.69
2023-01-12T17:53:40.724Z,94860.16
2023-01-12T17:56:11.108Z,94863.44
2023-01-12T17:58:40.855Z,94865.41
2023-01-12T18:01:13.629Z,94856.66
2023-01-12T18:03:41.693Z,94853.84
2023-01-12T18:06:15.058Z,94862.25
2023-01-12T18:08:47.721Z,94861.22
2023-01-12T18:11:18.323Z,94852.59
2023-01-12T18:13:46.693Z,94861.44
2023-01-12T18:16:16.969Z,94869.81
2023-01-12T18:18:45.101Z,94865.28
2023-01-12T18:21:14.933Z,94868.56
2023-01-12T18:23:43.570Z,94866.94
2023-01-12T18:26:14.511Z,94865.75
2023-01-12T18:28:43.915Z,94868.31
2023-01-12T18:31:13.969Z,94869.13
2023-01-12T18:33:42.539Z,94874.38
2023-01-12T18:36:11.907Z,94872.97
2023-01-12T18:38:41.240Z,94864.81
2023-01-12T18:41:27.641Z,94876.59
2023-01-12T18:43:59.309Z,94871.13
2023-01-12T18:46:53.836Z,94869.69
2023-01-12T18:49:21.623Z,94877.19
2023-01-12T18:52:06.966Z,94871.34
2023-01-12T18:54:35.541Z,94872.97
2023-01-12T18:57:03.567Z,94866.34
2023-01-12T18:59:33.356Z,94878.56
2023-01-12T19:02:01.625Z,94873.31
2023-01-12T19:04:52.670Z,94868.31
2023-01-12T19:07:30.035Z,94876.00
2023-01-12T19:09:59.436Z,94866.66
2023-01-12T19:12:27.682Z,94861.66
2023-01-12T19:15:14.317Z,94871.94
2023-01-12T19:17:42.309Z,94872.19
2023-01-12T19:20:14.943Z,94885.09
2023-01-12T19:23:00.890Z,94877.84
2023-01-12T19:25:47.270Z,94887.19
2023-01-12T19:28:36.389Z,94888.47
2023-01-12T19:31:08.032Z,94878.66
2023-01-12T19:33:36.426Z,94877.13
2023-01-12T19:36:07.831Z,94885.53
2023-01-12T19:38:36.983Z,94882.66
2023-01-12T19:41:12.340Z,94869.94
2023-01-12T19:43:41.721Z,94861.53
2023-01-12T19:46:13.084Z,94873.69
2023-01-12T19:48:41.311Z,94867.34
2023-01-12T19:51:11.517Z,94863.88
2023-01-12T19:53:40.351Z,94870.72
2023-01-12T19:56:11.236Z,94871.78
2023-01-12T19:58:40.663Z,94871.88
2023-01-12T20:01:10.348Z,94871.41
2023-01-12T20:03:39.815Z,94860.69
2023-01-12T20:06:09.048Z,94867.31
2023-01-12T20:08:37.425Z,94874.44
2023-01-12T20:11:05.788Z,94860.72
2023-01-12T20:13:33.813Z,94860.72
2023-01-12T20:16:07.008Z,94873.56
2023-01-12T20:18:36.656Z,94871.22
2023-01-12T20:21:09.741Z,94873.63
2023-01-12T20:23:37.988Z,94879.44
2023-01-12T20:26:07.809Z,94877.25
2023-01-12T20:28:36.317Z,94883.31
2023-01-12T20:31:10.588Z,94879.09
2023-01-12T20:33:40.539Z,94885.50
2023-01-12T20:36:12.303Z,94883.28
2023-01-12T20:38:40.845Z,94886.75
2023-01-12T20:41:09.301Z,94881.75
2023-01-12T20:43:38.192Z,94883.50
2023-01-12T20:46:09.839Z,94852.81
2023-01-12T20:48:40.809Z,94881.50
2023-01-12T20:51:09.145Z,94870.69
2023-01-12T20:53:37.592Z,94882.16
2023-01-12T20:56:06.765Z,94883.66
2023-01-12T20:58:35.297Z,94881.34
2023-01-12T21:01:10.152Z,94889.28
2023-01-12T21:03:40.270Z,94886.94
2023-01-12T21:06:12.193Z,94868.97
2023-01-12T21:08:42.989Z,94873.78
2023-01-12T21:11:11.592Z,94889.50
2023-01-12T21:13:40.004Z,94884.13
2023-01-12T21:16:12.764Z,94877.97
2023-01-12T21:18:42.957Z,94888.94
2023-01-12T21:21:11.994Z,94877.03
2023-01-12T21:23:40.070Z,94888.00
2023-01-12T21:26:09.726Z,94879.47
2023-01-12T21:28:39.244Z,94886.03
2023-01-12T21:31:08.533Z,94880.53
2023-01-12T21:33:37.022Z,94889.88
2023-01-12T21:36:07.070Z,94880.31
2023-01-12T21:38:34.973Z,94879.25
2023-01-12T21:41:04.490Z,94872.25
2023-01-12T21:43:33.327Z,94874.25
2023-01-12T21:46:06.667Z,94878.34
2023-01-12T21:48:34.869Z,94870.75
2023-01-12T21:51:03.450Z,94875.41
2023-01-12T21:53:33.193Z,94870.41
2023-01-12T21:56:03.470Z,94866.91
2023-01-12T21:58:33.375Z,94865.84
2023-01-12T22:01:01.584Z,94868.66
2023-01-12T22:03:30.297Z,94864.34
2023-01-12T22:06:05.501Z,94862.13
2023-01-12T22:08:36.339Z,94857.34
2023-01-12T22:11:08.919Z,94871.34
2023-01-12T22:13:37.944Z,94862.13
2023-01-12T22:16:09.163Z,94865.75
2023-01-12T22:18:38.847Z,94863.44
2023-01-12T22:21:08.660Z,94860.97
2023-01-12T22:23:39.114Z,94867.97
2023-01-12T22:26:09.471Z,94855.16
2023-01-12T22:28:40.301Z,94862.25
2023-01-12T22:31:10.119Z,94861.09
2023-01-12T22:33:40.872Z,94853.28
2023-01-12T22:36:09.611Z,94850.13
2023-01-12T22:38:39.148Z,94852.47
2023-01-12T22:41:08.089Z,94836.63
2023-01-12T22:43:40.705Z,94836.97
2023-01-12T22:46:15.115Z,94846.41
2023-01-12T22:48:43.178Z,94840.81
2023-01-12T22:51:11.727Z,94842.94
2023-01-12T22:53:41.010Z,94827.53
2023-01-12T22:56:10.785Z,94826.09
2023-01-12T22:58:38.832Z,94843.38
2023-01-12T23:01:09.485Z,94839.16
2023-01-12T23:03:38.357Z,94841.72
2023-01-12T23:06:07.700Z,94838.44
2023-01-12T23:08:35.580Z,94845.34
2023-01-12T23:11:06.287Z,94841.47
2023-01-12T23:13:35.222Z,94841.97
2023-01-12T23:16:06.158Z,94836.91
2023-01-12T23:18:35.649Z,94839.59
2023-01-12T23:21:09.880Z,94841.56
2023-01-12T23:23:38.275Z,94836.91
2023-01-12T23:26:09.917Z,94843.34
2023-01-12T23:28:41.441Z,94839.47
2023-01-12T23:31:11.535Z,94834.72
2023-01-12T23:33:40.462Z,94833.78
2023-01-12T23:36:11.438Z,94833.19
2023-01-12T23:38:39.383Z,94841.13
2023-01-12T23:41:12.966Z,94841.38
2023-01-12T23:43:40.820Z,94839.84
2023-01-12T23:46:08.963Z,94836.56
2023-01-12T23:48:37.018Z,94844.84
2023-01-12T23:51:05.765Z,94843.34
2023-01-12T23:53:33.835Z,94848.69
2023-01-12T23:56:06.077Z,94832.97
2023-01-12T23:58:35.693Z,94846.50
